createdAt,value
2023-04-18T00:01:49.055Z,24.20
2023-04-18T00:04:18.368Z,19.95
2023-04-18T00:06:46.504Z,19.98
2023-04-18T00:09:13.311Z,22.48
2023-04-18T00:11:40.074Z,23.40
2023-04-18T00:14:06.798Z,17.40
2023-04-18T00:16:33.684Z,19.58
2023-04-18T00:19:02.360Z,21.27
2023-04-18T00:21:30.359Z,29.40
2023-04-18T00:23:57.085Z,17.83
2023-04-18T00:26:23.898Z,17.85
2023-04-18T00:28:50.684Z,20.40
2023-04-18T00:31:17.471Z,25.88
2023-04-18T00:33:44.190Z,18.08
2023-04-18T00:36:10.885Z,24.63
2023-04-18T00:38:37.594Z,22.38
2023-04-18T00:41:04.320Z,20.35
2023-04-18T00:43:31.223Z,19.67
2023-04-18T00:46:01.545Z,20.10
2023-04-18T00:48:28.440Z,19.58
2023-04-18T00:50:55.194Z,21.90
2023-04-18T00:53:21.877Z,16.77
2023-04-18T00:55:48.580Z,20.08
2023-04-18T00:58:15.356Z,26.17
2023-04-18T01:00:42.799Z,17.73
2023-04-18T01:03:10.946Z,19.10
2023-04-18T01:05:37.889Z,21.95
2023-04-18T01:08:04.689Z,19.48
2023-04-18T01:10:31.466Z,23.48
2023-04-18T01:12:58.110Z,23.48
2023-04-18T01:15:24.862Z,20.55
2023-04-18T01:17:52.545Z,24.88
2023-04-18T01:20:19.691Z,17.80
2023-04-18T01:22:46.640Z,23.08
2023-04-18T01:25:13.313Z,21.98
2023-04-18T01:27:39.976Z,18.65
2023-04-18T01:30:06.847Z,21.80
2023-04-18T01:32:33.560Z,22.20
2023-04-18T01:35:00.241Z,22.20
2023-04-18T01:37:26.903Z,17.52
2023-04-18T01:39:54.019Z,21.58
2023-04-18T01:42:20.751Z,20.75
2023-04-18T01:44:47.501Z,21.25
2023-04-18T01:47:14.179Z,31.92
2023-04-18T01:49:43.097Z,23.02
2023-04-18T01:52:12.620Z,24.15
2023-04-18T01:54:39.441Z,17.65
2023-04-18T01:57:06.225Z,27.85
2023-04-18T01:59:34.240Z,20.85
2023-04-18T02:02:01.104Z,19.35
2023-04-18T02:04:27.876Z,31.45
2023-04-18T02:06:54.552Z,23.02
2023-04-18T02:09:21.365Z,17.63
2023-04-18T02:11:48.131Z,17.13
2023-04-18T02:14:15.086Z,23.20
2023-04-18T02:16:41.942Z,20.45
2023-04-18T02:19:08.659Z,28.90
2023-04-18T02:21:35.280Z,18.33
2023-04-18T02:24:01.932Z,22.45
2023-04-18T02:26:28.652Z,22.77
2023-04-18T02:28:55.725Z,21.13
2023-04-18T02:31:22.433Z,19.70
2023-04-18T02:33:49.454Z,23.50
2023-04-18T02:36:16.205Z,21.98
2023-04-18T02:38:42.830Z,24.10
2023-04-18T02:41:09.451Z,25.05
2023-04-18T02:43:36.082Z,23.40
2023-04-18T02:46:02.817Z,16.05
2023-04-18T02:48:29.615Z,20.65
2023-04-18T02:50:56.395Z,27.45
2023-04-18T02:53:25.076Z,15.05
2023-04-18T02:55:51.722Z,29.30
2023-04-18T02:58:18.437Z,27.60
2023-04-18T03:00:45.130Z,25.27
2023-04-18T03:03:12.859Z,24.20
2023-04-18T03:05:40.043Z,17.58
2023-04-18T03:08:06.644Z,20.80
2023-04-18T03:10:33.318Z,22.30
2023-04-18T03:13:00.069Z,23.02
2023-04-18T03:15:26.997Z,22.35
2023-04-18T03:17:53.778Z,17.30
2023-04-18T03:20:20.505Z,21.17
2023-04-18T03:22:47.141Z,25.20
2023-04-18T03:25:13.818Z,19.58
2023-04-18T03:27:40.561Z,19.90
2023-04-18T03:30:07.351Z,28.60
2023-04-18T03:32:35.280Z,16.92
2023-04-18T03:35:01.953Z,20.25
2023-04-18T03:37:28.595Z,22.73
2023-04-18T03:39:55.376Z,24.60
2023-04-18T03:42:22.082Z,24.88
2023-04-18T03:44:48.847Z,20.23
2023-04-18T03:47:15.593Z,18.27
2023-04-18T03:49:42.192Z,18.15
2023-04-18T03:52:08.783Z,19.92
2023-04-18T03:54:35.478Z,21.42
2023-04-18T03:57:03.178Z,19.88
2023-04-18T03:59:29.856Z,20.95
2023-04-18T04:01:56.508Z,18.38
2023-04-18T04:04:23.444Z,19.73
2023-04-18T04:06:50.724Z,21.98
2023-04-18T04:09:17.556Z,17.70
2023-04-18T04:11:45.920Z,23.50
2023-04-18T04:14:13.004Z,18.15
2023-04-18T04:16:40.544Z,24.27
2023-04-18T04:19:07.166Z,20.13
2023-04-18T04:21:33.848Z,24.48
2023-04-18T04:24:01.462Z,20.10
2023-04-18T04:26:28.188Z,20.65
2023-04-18T04:28:54.932Z,18.60
2023-04-18T04:31:22.263Z,22.25
2023-04-18T04:33:48.986Z,20.90
2023-04-18T04:36:18.781Z,24.50
2023-04-18T04:38:45.821Z,16.90
2023-04-18T04:41:12.835Z,20.23
2023-04-18T04:43:41.382Z,19.30
2023-04-18T04:46:08.850Z,22.77
2023-04-18T04:48:35.627Z,19.75
2023-04-18T04:51:02.484Z,18.92
2023-04-18T04:53:32.394Z,18.27
2023-04-18T04:56:01.276Z,19.52
2023-04-18T04:58:28.099Z,21.55
2023-04-18T05:00:54.985Z,20.20
2023-04-18T05:03:21.887Z,19.63
2023-04-18T05:05:48.797Z,19.70
2023-04-18T05:08:15.486Z,21.88
2023-04-18T05:10:43.375Z,26.10
2023-04-18T05:13:10.205Z,23.20
2023-04-18T05:15:36.815Z,24.15
2023-04-18T05:18:03.471Z,26.50
2023-04-18T05:20:30.400Z,23.83
2023-04-18T05:22:57.125Z,24.98
2023-04-18T05:25:24.036Z,28.88
2023-04-18T05:27:50.633Z,20.70
2023-04-18T05:30:17.762Z,26.40
2023-04-18T05:32:44.409Z,17.65
2023-04-18T05:35:11.158Z,22.95
2023-04-18T05:37:37.844Z,22.50
2023-04-18T05:40:05.074Z,23.60
2023-04-18T05:42:31.708Z,25.88
2023-04-18T05:44:58.373Z,22.27
2023-04-18T05:47:28.541Z,23.77
2023-04-18T05:49:55.482Z,19.40
2023-04-18T05:52:22.218Z,27.75
2023-04-18T05:54:48.978Z,26.85
2023-04-18T05:57:16.222Z,19.85
2023-04-18T05:59:42.954Z,20.25
2023-04-18T06:02:13.573Z,22.10
2023-04-18T06:04:41.872Z,26.83
2023-04-18T06:07:08.814Z,25.73
2023-04-18T06:09:35.553Z,22.80
2023-04-18T06:12:02.370Z,25.10
2023-04-18T06:14:29.034Z,24.00
2023-04-18T06:16:55.720Z,21.55
2023-04-18T06:19:22.518Z,26.35
2023-04-18T06:21:49.222Z,26.38
2023-04-18T06:24:16.264Z,23.88
2023-04-18T06:26:43.297Z,20.10
2023-04-18T06:29:10.088Z,21.08
2023-04-18T06:31:36.823Z,26.90
2023-04-18T06:34:03.572Z,21.55
2023-04-18T06:36:30.444Z,22.00
2023-04-18T06:38:57.173Z,23.17
2023-04-18T06:41:23.862Z,28.73
2023-04-18T06:44:02.650Z,29.85
2023-04-18T06:46:30.687Z,25.90
2023-04-18T06:48:57.502Z,28.25
2023-04-18T06:51:24.230Z,26.88
2023-04-18T06:53:52.987Z,22.33
2023-04-18T06:56:20.621Z,32.33
2023-04-18T06:58:47.262Z,25.00
2023-04-18T07:01:13.962Z,21.75
2023-04-18T07:03:40.789Z,19.92
2023-04-18T07:06:08.926Z,23.08
2023-04-18T07:08:35.605Z,21.45
2023-04-18T07:11:02.251Z,22.92
2023-04-18T07:13:28.881Z,29.83
2023-04-18T07:15:55.555Z,26.75
2023-04-18T07:18:34.154Z,22.60
2023-04-18T07:21:03.762Z,26.38
2023-04-18T07:23:30.700Z,30.88
2023-04-18T07:25:59.538Z,30.70
2023-04-18T07:28:26.231Z,21.95
2023-04-18T07:30:55.235Z,27.05
2023-04-18T07:33:22.042Z,21.65
2023-04-18T07:35:50.037Z,27.20
2023-04-18T07:38:16.722Z,26.75
2023-04-18T07:40:43.353Z,22.35
2023-04-18T07:43:09.980Z,21.95
2023-04-18T07:45:38.436Z,34.67
2023-04-18T07:48:05.162Z,20.65
2023-04-18T07:50:32.027Z,24.50
2023-04-18T07:52:58.743Z,17.55
2023-04-18T07:55:25.447Z,35.28
2023-04-18T07:57:52.158Z,26.45
2023-04-18T08:00:18.785Z,21.55
2023-04-18T08:02:45.574Z,28.02
2023-04-18T08:05:12.396Z,21.08
2023-04-18T08:07:39.038Z,19.00
2023-04-18T08:10:05.776Z,22.63
2023-04-18T08:12:32.460Z,24.05
2023-04-18T08:14:59.195Z,17.92
2023-04-18T08:17:25.933Z,18.98
2023-04-18T08:19:52.584Z,15.35
2023-04-18T08:22:19.263Z,18.83
2023-04-18T08:25:01.112Z,21.40
2023-04-18T08:27:31.493Z,17.15
2023-04-18T08:29:58.332Z,16.45
2023-04-18T08:32:25.092Z,17.08
2023-04-18T08:34:51.856Z,17.98
2023-04-18T08:37:18.486Z,14.50
2023-04-18T08:39:45.248Z,13.48
2023-04-18T08:42:11.972Z,13.00
2023-04-18T08:44:38.634Z,21.95
2023-04-18T08:47:06.230Z,16.83
2023-04-18T08:49:33.769Z,16.88
2023-04-18T08:52:01.300Z,13.93
2023-04-18T08:54:30.503Z,12.95
2023-04-18T08:56:57.248Z,13.10
2023-04-18T08:59:25.238Z,15.55
2023-04-18T09:01:52.914Z,14.32
2023-04-18T09:04:22.245Z,20.63
2023-04-18T09:06:49.219Z,14.48
2023-04-18T09:09:15.973Z,16.25
2023-04-18T09:11:42.703Z,13.57
2023-04-18T09:14:09.368Z,13.73
2023-04-18T09:16:36.076Z,13.35
2023-04-18T09:19:04.691Z,16.88
2023-04-18T09:21:33.025Z,19.55
2023-04-18T09:23:59.726Z,11.55
2023-04-18T09:26:26.458Z,17.52
2023-04-18T09:28:53.973Z,16.13
2023-04-18T09:31:22.310Z,13.13
2023-04-18T09:33:49.738Z,9.93
2023-04-18T09:36:16.773Z,8.13
2023-04-18T09:38:43.385Z,12.18
2023-04-18T09:41:10.116Z,10.52
2023-04-18T09:43:36.738Z,12.43
2023-04-18T09:46:03.434Z,10.60
2023-04-18T09:48:30.365Z,10.52
2023-04-18T09:50:56.973Z,11.95
2023-04-18T09:53:23.736Z,10.63
2023-04-18T09:55:50.464Z,8.80
2023-04-18T09:58:17.360Z,12.80
2023-04-18T10:00:46.269Z,12.02
2023-04-18T10:03:13.600Z,12.18
2023-04-18T10:05:40.662Z,9.25
2023-04-18T10:08:07.413Z,11.82
2023-04-18T10:10:34.059Z,14.32
2023-04-18T10:13:00.727Z,13.43
2023-04-18T10:15:27.389Z,9.80
2023-04-18T10:18:03.783Z,16.40
2023-04-18T10:20:32.230Z,12.35
2023-04-18T10:22:58.812Z,12.88
2023-04-18T10:25:25.552Z,11.23
2023-04-18T10:27:52.212Z,10.77
2023-04-18T10:30:18.942Z,8.05
2023-04-18T10:32:45.722Z,7.20
2023-04-18T10:35:12.485Z,8.40
2023-04-18T10:37:39.089Z,9.32
2023-04-18T10:40:10.382Z,8.55
2023-04-18T10:42:36.987Z,7.80
2023-04-18T10:45:03.689Z,7.32
2023-04-18T10:47:30.578Z,8.45
2023-04-18T10:49:57.400Z,6.43
2023-04-18T10:52:24.186Z,8.50
2023-04-18T10:54:50.967Z,8.05
2023-04-18T10:57:17.863Z,10.43
2023-04-18T10:59:44.548Z,6.35
2023-04-18T11:02:11.309Z,9.52
2023-04-18T11:04:38.089Z,10.07
2023-04-18T11:07:04.859Z,7.72
2023-04-18T11:09:31.544Z,7.07
2023-04-18T11:11:58.236Z,8.18
2023-04-18T11:14:24.867Z,6.07
2023-04-18T11:16:51.565Z,6.35
2023-04-18T11:19:19.069Z,8.50
2023-04-18T11:21:45.810Z,6.03
2023-04-18T11:24:12.621Z,14.05
2023-04-18T11:26:39.774Z,8.02
2023-04-18T11:29:06.454Z,6.95
2023-04-18T11:31:33.224Z,8.82
2023-04-18T11:33:59.944Z,7.60
2023-04-18T11:36:26.603Z,7.13
2023-04-18T11:38:53.325Z,7.70
2023-04-18T11:41:20.096Z,7.35
2023-04-18T11:43:46.770Z,8.90
2023-04-18T11:46:13.735Z,8.20
2023-04-18T11:48:40.795Z,10.63
2023-04-18T11:51:07.620Z,6.97
2023-04-18T11:53:34.756Z,12.35
2023-04-18T11:56:03.575Z,8.23
2023-04-18T11:58:30.302Z,10.75
2023-04-18T12:00:57.088Z,9.93
2023-04-18T12:03:24.895Z,9.95
2023-04-18T12:05:52.013Z,9.43
2023-04-18T12:08:18.773Z,14.38
2023-04-18T12:10:45.522Z,8.48
2023-04-18T12:13:12.180Z,8.10
2023-04-18T12:15:39.334Z,12.68
2023-04-18T12:18:08.460Z,10.40
2023-04-18T12:20:35.575Z,8.10
2023-04-18T12:23:03.633Z,12.70
2023-04-18T12:25:30.272Z,12.95
2023-04-18T12:27:58.143Z,12.35
2023-04-18T12:30:25.662Z,12.88
2023-04-18T12:32:52.362Z,14.30
2023-04-18T12:35:22.139Z,11.18
2023-04-18T12:37:48.936Z,10.15
2023-04-18T12:40:15.743Z,9.45
2023-04-18T12:42:42.463Z,12.15
2023-04-18T12:45:09.215Z,8.50
2023-04-18T12:47:35.932Z,11.02
2023-04-18T12:50:02.708Z,8.43
2023-04-18T12:52:30.405Z,9.75
2023-04-18T12:54:57.933Z,10.98
2023-04-18T12:57:24.645Z,9.90
2023-04-18T12:59:51.340Z,10.52
2023-04-18T13:02:21.153Z,12.63
2023-04-18T13:04:48.049Z,8.65
2023-04-18T13:07:14.818Z,6.75
2023-04-18T13:09:41.492Z,10.57
2023-04-18T13:12:08.168Z,10.85
2023-04-18T13:14:34.854Z,7.32
2023-04-18T13:17:01.571Z,7.75
2023-04-18T13:19:28.383Z,7.35
2023-04-18T13:21:55.051Z,6.97
2023-04-18T13:24:21.773Z,6.78
2023-04-18T13:26:48.448Z,6.75
2023-04-18T13:29:15.521Z,13.15
2023-04-18T13:31:42.771Z,9.02
2023-04-18T13:34:09.456Z,9.27
2023-04-18T13:36:36.172Z,10.88
2023-04-18T13:39:04.696Z,6.75
2023-04-18T13:41:31.597Z,10.40
2023-04-18T13:43:58.457Z,6.32
2023-04-18T13:46:26.734Z,7.28
2023-04-18T13:48:53.481Z,5.47
2023-04-18T13:51:20.220Z,7.30
2023-04-18T13:53:46.890Z,9.88
2023-04-18T13:56:13.677Z,8.35
2023-04-18T13:58:40.632Z,9.88
2023-04-18T14:01:07.703Z,5.38
2023-04-18T14:03:35.621Z,4.88
2023-04-18T14:06:04.300Z,7.85
2023-04-18T14:08:30.962Z,16.98
2023-04-18T14:10:57.598Z,4.68
2023-04-18T14:13:24.341Z,4.68
2023-04-18T14:15:51.140Z,6.45
2023-04-18T14:18:21.855Z,5.13
2023-04-18T14:20:48.815Z,8.18
2023-04-18T14:23:16.189Z,5.90
2023-04-18T14:25:42.851Z,5.15
2023-04-18T14:28:09.876Z,10.60
2023-04-18T14:30:36.702Z,12.75
2023-04-18T14:33:03.935Z,6.00
2023-04-18T14:35:30.990Z,6.13
2023-04-18T14:37:57.740Z,6.22
2023-04-18T14:40:24.497Z,7.63
2023-04-18T14:42:51.303Z,7.30
2023-04-18T14:45:18.073Z,6.47
2023-04-18T14:47:44.878Z,7.18
2023-04-18T14:50:12.278Z,8.38
2023-04-18T14:52:39.041Z,8.80
2023-04-18T14:55:05.824Z,7.57
2023-04-18T14:57:32.542Z,6.57
2023-04-18T14:59:59.218Z,6.07
2023-04-18T15:02:26.306Z,13.48
2023-04-18T15:04:53.660Z,6.97
2023-04-18T15:07:20.565Z,8.70
2023-04-18T15:09:47.353Z,8.40
2023-04-18T15:12:14.142Z,9.35
2023-04-18T15:14:40.940Z,6.30
2023-04-18T15:17:07.653Z,7.00
2023-04-18T15:19:34.665Z,12.10
2023-04-18T15:22:01.372Z,8.00
2023-04-18T15:24:28.016Z,10.95
2023-04-18T15:26:54.954Z,10.32
2023-04-18T15:29:21.801Z,15.30
2023-04-18T15:31:48.651Z,9.68
2023-04-18T15:34:15.732Z,9.95
2023-04-18T15:36:42.657Z,10.57
2023-04-18T15:39:09.577Z,9.65
2023-04-18T15:41:36.314Z,11.88
2023-04-18T15:44:02.957Z,16.83
2023-04-18T15:46:29.757Z,11.60
2023-04-18T15:48:56.463Z,14.90
2023-04-18T15:51:23.210Z,15.70
2023-04-18T15:53:49.831Z,12.57
2023-04-18T15:56:16.949Z,13.10
2023-04-18T15:58:43.607Z,13.05
2023-04-18T16:01:10.516Z,15.18
2023-04-18T16:03:38.013Z,16.85
2023-04-18T16:06:04.829Z,8.98
2023-04-18T16:08:33.145Z,9.95
2023-04-18T16:11:00.282Z,16.00
2023-04-18T16:13:27.071Z,20.63
2023-04-18T16:15:54.021Z,15.52
2023-04-18T16:18:21.015Z,15.95
2023-04-18T16:20:47.869Z,14.13
2023-04-18T16:23:14.574Z,12.85
2023-04-18T16:25:41.351Z,15.50
2023-04-18T16:28:08.295Z,11.10
2023-04-18T16:30:34.980Z,11.90
2023-04-18T16:33:02.069Z,14.90
2023-04-18T16:35:28.992Z,13.32
2023-04-18T16:37:55.731Z,17.10
2023-04-18T16:40:22.498Z,13.75
2023-04-18T16:42:49.338Z,23.75
2023-04-18T16:45:17.374Z,15.05
2023-04-18T16:47:44.077Z,14.77
2023-04-18T16:50:11.074Z,20.40
2023-04-18T16:52:37.864Z,12.32
2023-04-18T16:55:05.150Z,12.50
2023-04-18T16:57:31.844Z,14.75
2023-04-18T17:00:00.650Z,15.70
2023-04-18T17:02:27.513Z,15.00
2023-04-18T17:04:54.523Z,14.13
2023-04-18T17:07:21.247Z,14.50
2023-04-18T17:09:48.176Z,12.55
2023-04-18T17:12:14.923Z,21.10
2023-04-18T17:14:41.877Z,15.00
2023-04-18T17:17:08.664Z,18.13
2023-04-18T17:19:35.597Z,13.52
2023-04-18T17:22:02.772Z,12.25
2023-04-18T17:24:29.485Z,14.77
2023-04-18T17:26:57.864Z,18.08
2023-04-18T17:29:25.412Z,16.35
2023-04-18T17:31:53.447Z,15.07
2023-04-18T17:34:20.295Z,19.35
2023-04-18T17:36:47.094Z,13.77
2023-04-18T17:39:18.761Z,12.48
2023-04-18T17:41:46.106Z,12.95
2023-04-18T17:44:13.033Z,16.42
2023-04-18T17:46:39.771Z,17.30
2023-04-18T17:49:06.540Z,12.15
2023-04-18T17:51:33.326Z,12.18
2023-04-18T17:54:00.145Z,23.60
2023-04-18T17:56:27.466Z,12.05
2023-04-18T17:58:56.410Z,13.07
2023-04-18T18:01:24.934Z,13.52
2023-04-18T18:03:53.788Z,13.20
2023-04-18T18:06:21.279Z,12.68
2023-04-18T18:08:48.382Z,12.00
2023-04-18T18:11:15.146Z,11.32
2023-04-18T18:13:42.358Z,13.77
2023-04-18T18:16:09.332Z,14.13
2023-04-18T18:18:36.904Z,13.10
2023-04-18T18:21:03.997Z,14.30
2023-04-18T18:23:30.904Z,14.40
2023-04-18T18:25:57.600Z,13.10
2023-04-18T18:28:24.469Z,17.10
2023-04-18T18:30:51.483Z,11.90
2023-04-18T18:33:18.392Z,14.10
2023-04-18T18:35:45.186Z,11.60
2023-04-18T18:38:11.910Z,16.67
2023-04-18T18:40:38.808Z,17.45
2023-04-18T18:43:05.713Z,9.07
2023-04-18T18:45:32.476Z,15.80
2023-04-18T18:47:59.468Z,16.95
2023-04-18T18:50:26.365Z,12.25
2023-04-18T18:52:53.166Z,16.42
2023-04-18T18:55:20.103Z,11.68
2023-04-18T18:57:46.900Z,14.65
2023-04-18T19:00:13.845Z,13.68
2023-04-18T19:02:40.853Z,13.50
2023-04-18T19:05:07.848Z,19.00
2023-04-18T19:07:34.692Z,16.02
2023-04-18T19:10:02.073Z,17.42
2023-04-18T19:12:29.447Z,15.93
2023-04-18T19:14:56.442Z,13.73
2023-04-18T19:17:25.019Z,14.50
2023-04-18T19:19:52.143Z,15.68
2023-04-18T19:22:34.456Z,17.17
2023-04-18T19:25:01.408Z,13.02
2023-04-18T19:27:28.235Z,26.55
2023-04-18T19:29:55.158Z,13.48
2023-04-18T19:32:22.060Z,13.63
2023-04-18T19:34:48.780Z,17.00
2023-04-18T19:37:15.689Z,11.85
2023-04-18T19:39:42.458Z,12.00
2023-04-18T19:42:09.110Z,10.25
2023-04-18T19:44:35.916Z,16.40
2023-04-18T19:47:03.135Z,12.38
2023-04-18T19:49:30.457Z,19.30
2023-04-18T19:51:58.334Z,15.48
2023-04-18T19:54:25.323Z,11.65
2023-04-18T19:56:52.126Z,13.90
2023-04-18T19:59:20.987Z,19.02
2023-04-18T20:01:47.829Z,13.68
2023-04-18T20:04:14.912Z,19.70
2023-04-18T20:06:45.410Z,23.02
2023-04-18T20:09:16.858Z,13.07
2023-04-18T20:11:43.796Z,21.27
2023-04-18T20:14:10.871Z,15.80
2023-04-18T20:16:39.217Z,14.82
2023-04-18T20:19:06.181Z,25.92
2023-04-18T20:21:33.055Z,14.88
2023-04-18T20:23:59.873Z,18.20
2023-04-18T20:26:26.835Z,13.07
2023-04-18T20:28:53.545Z,15.85
2023-04-18T20:31:20.387Z,14.48
2023-04-18T20:33:47.259Z,17.05
2023-04-18T20:36:14.230Z,29.52
2023-04-18T20:38:40.972Z,18.98
2023-04-18T20:41:10.731Z,13.93
2023-04-18T20:43:37.678Z,15.52
2023-04-18T20:46:04.514Z,28.52
2023-04-18T20:48:31.384Z,12.40
2023-04-18T20:50:58.261Z,16.75
2023-04-18T20:53:27.066Z,15.57
2023-04-18T20:55:53.905Z,13.65
2023-04-18T20:58:20.847Z,15.43
2023-04-18T21:00:48.709Z,18.35
2023-04-18T21:03:17.489Z,14.50
2023-04-18T21:05:44.440Z,14.15
2023-04-18T21:08:11.593Z,12.35
2023-04-18T21:10:38.431Z,14.35
2023-04-18T21:13:05.166Z,12.30
2023-04-18T21:15:31.845Z,16.05
2023-04-18T21:17:58.492Z,15.02
2023-04-18T21:20:25.179Z,18.92
2023-04-18T21:22:51.955Z,11.60
2023-04-18T21:25:20.486Z,16.85
2023-04-18T21:27:47.221Z,16.98
2023-04-18T21:30:13.930Z,11.57
2023-04-18T21:32:40.636Z,16.90
2023-04-18T21:35:07.306Z,11.70
2023-04-18T21:37:33.942Z,15.73
2023-04-18T21:40:00.640Z,16.38
2023-04-18T21:42:27.331Z,20.38
2023-04-18T21:44:54.947Z,19.90
2023-04-18T21:47:21.673Z,21.77
2023-04-18T21:49:48.500Z,21.40
2023-04-18T21:52:15.370Z,19.70
2023-04-18T21:54:42.028Z,23.98
2023-04-18T21:57:08.701Z,12.80
2023-04-18T21:59:35.380Z,20.83
2023-04-18T22:02:02.193Z,14.75
2023-04-18T22:04:29.135Z,17.73
2023-04-18T22:06:57.597Z,21.02
2023-04-18T22:09:24.304Z,18.75
2023-04-18T22:11:51.940Z,18.20
2023-04-18T22:14:20.031Z,17.88
2023-04-18T22:16:46.815Z,17.13
2023-04-18T22:19:14.176Z,19.90
2023-04-18T22:21:40.863Z,16.17
2023-04-18T22:24:07.539Z,24.00
2023-04-18T22:26:34.179Z,13.23
2023-04-18T22:29:00.848Z,19.15
2023-04-18T22:31:27.543Z,18.77
2023-04-18T22:33:54.164Z,20.77
2023-04-18T22:36:20.811Z,31.88
2023-04-18T22:38:47.449Z,15.02
2023-04-18T22:41:14.032Z,21.67
2023-04-18T22:43:40.804Z,21.98
2023-04-18T22:46:07.468Z,23.67
2023-04-18T22:48:35.296Z,18.88
2023-04-18T22:51:02.011Z,16.88
2023-04-18T22:53:28.714Z,18.55
2023-04-18T22:55:55.498Z,15.85
2023-04-18T22:58:22.266Z,22.42
2023-04-18T23:00:48.899Z,25.88
2023-04-18T23:03:15.863Z,23.75
2023-04-18T23:05:42.632Z,20.08
2023-04-18T23:08:09.320Z,19.52
2023-04-18T23:10:35.966Z,19.45
2023-04-18T23:13:02.667Z,17.55
2023-04-18T23:15:29.312Z,17.83
2023-04-18T23:17:55.992Z,14.20
2023-04-18T23:20:23.973Z,16.95
2023-04-18T23:22:51.684Z,22.65
2023-04-18T23:25:19.568Z,25.90
2023-04-18T23:27:46.363Z,16.63
2023-04-18T23:30:13.052Z,32.10
2023-04-18T23:32:39.744Z,18.95
2023-04-18T23:35:06.531Z,22.23
2023-04-18T23:37:33.137Z,19.13
2023-04-18T23:39:59.766Z,18.27
2023-04-18T23:42:26.437Z,12.85
2023-04-18T23:44:53.201Z,24.52
2023-04-18T23:47:19.834Z,17.38
2023-04-18T23:49:46.545Z,28.48
2023-04-18T23:52:13.134Z,22.58
2023-04-18T23:54:39.902Z,26.17
2023-04-18T23:57:06.565Z,17.10
2023-04-18T23:59:33.238Z,21.75
